createdAt,value
2018-12-13T00:00:35.194Z,14.30
2018-12-13T00:03:04.614Z,14.37
2018-12-13T00:05:35.997Z,13.03
2018-12-13T00:08:05.363Z,13.80
2018-12-13T00:10:34.668Z,13.80
2018-12-13T00:13:07.445Z,14.07
2018-12-13T00:15:36.815Z,13.93
2018-12-13T00:18:06.312Z,13.93
2018-12-13T00:20:35.762Z,13.00
2018-12-13T00:23:05.205Z,13.57
2018-12-13T00:25:34.535Z,13.43
2018-12-13T00:28:03.988Z,12.87
2018-12-13T00:30:33.269Z,13.13
2018-12-13T00:33:02.692Z,13.47
2018-12-13T00:35:31.993Z,12.33
2018-12-13T00:38:03.358Z,12.80
2018-12-13T00:40:32.691Z,12.73
2018-12-13T00:43:01.933Z,13.57
2018-12-13T00:45:31.339Z,13.30
2018-12-13T00:48:00.709Z,13.10
2018-12-13T00:50:29.957Z,13.20
2018-12-13T00:52:59.260Z,13.37
2018-12-13T00:55:28.604Z,12.30
2018-12-13T00:57:57.905Z,12.67
2018-12-13T01:00:27.178Z,13.37
2018-12-13T01:02:56.500Z,12.90
2018-12-13T01:05:25.903Z,13.00
2018-12-13T01:07:55.196Z,13.03
2018-12-13T01:10:25.510Z,12.90
2018-12-13T01:12:54.795Z,12.80
2018-12-13T01:15:26.123Z,12.53
2018-12-13T01:17:55.465Z,12.30
2018-12-13T01:20:24.828Z,11.57
2018-12-13T01:22:54.060Z,11.27
2018-12-13T01:25:23.851Z,11.83
2018-12-13T01:27:53.194Z,12.77
2018-12-13T01:30:22.500Z,10.90
2018-12-13T01:32:51.799Z,12.70
2018-12-13T01:35:21.078Z,12.17
2018-12-13T01:37:50.378Z,12.57
2018-12-13T01:40:19.674Z,12.23
2018-12-13T01:42:49.039Z,12.90
2018-12-13T01:45:19.548Z,12.87
2018-12-13T01:47:48.904Z,12.77
2018-12-13T01:50:18.190Z,12.40
2018-12-13T01:52:47.472Z,12.07
2018-12-13T01:55:16.706Z,11.77
2018-12-13T01:57:46.046Z,12.00
2018-12-13T02:00:15.351Z,11.80
2018-12-13T02:02:44.610Z,11.43
2018-12-13T02:05:13.931Z,11.77
2018-12-13T02:07:43.223Z,11.37
2018-12-13T02:10:13.630Z,11.13
2018-12-13T02:12:42.931Z,10.43
2018-12-13T02:15:12.268Z,10.27
2018-12-13T02:17:41.549Z,9.87
2018-12-13T02:20:11.128Z,8.70
2018-12-13T02:22:40.527Z,9.80
2018-12-13T02:25:09.976Z,8.93
2018-12-13T02:27:39.243Z,8.83
2018-12-13T02:30:08.845Z,8.70
2018-12-13T02:32:38.127Z,8.57
2018-12-13T02:35:07.702Z,9.33
2018-12-13T02:37:39.027Z,9.10
2018-12-13T02:40:08.583Z,8.97
2018-12-13T02:42:37.886Z,9.10
2018-12-13T02:45:07.459Z,9.50
2018-12-13T02:47:41.737Z,9.10
2018-12-13T02:50:11.179Z,10.30
2018-12-13T02:52:40.407Z,10.17
2018-12-13T02:55:09.722Z,10.17
2018-12-13T02:57:38.972Z,9.80
2018-12-13T03:00:08.488Z,10.17
2018-12-13T03:02:37.865Z,10.23
2018-12-13T03:05:07.418Z,10.50
2018-12-13T03:07:36.689Z,10.30
2018-12-13T03:10:06.634Z,10.50
2018-12-13T03:12:35.886Z,10.47
2018-12-13T03:15:05.616Z,10.57
2018-12-13T03:17:34.902Z,10.33
2018-12-13T03:20:05.277Z,11.10
2018-12-13T03:22:35.601Z,10.73
2018-12-13T03:25:05.445Z,11.57
2018-12-13T03:27:34.782Z,11.87
2018-12-13T03:30:04.369Z,11.97
2018-12-13T03:32:33.904Z,10.73
2018-12-13T03:35:03.297Z,11.23
2018-12-13T03:37:32.558Z,11.73
2018-12-13T03:40:01.858Z,11.60
2018-12-13T03:42:31.253Z,12.03
2018-12-13T03:45:00.545Z,11.90
2018-12-13T03:47:29.842Z,12.93
2018-12-13T03:49:59.185Z,12.87
2018-12-13T03:52:28.600Z,12.37
2018-12-13T03:54:57.871Z,12.60
2018-12-13T03:57:27.130Z,12.90
2018-12-13T03:59:56.414Z,12.37
2018-12-13T04:02:25.710Z,12.30
2018-12-13T04:04:54.963Z,12.37
2018-12-13T04:07:27.727Z,12.40
2018-12-13T04:09:56.564Z,13.80
2018-12-13T04:12:25.942Z,12.63
2018-12-13T04:14:55.206Z,13.83
2018-12-13T04:17:24.462Z,14.00
2018-12-13T04:19:53.815Z,14.60
2018-12-13T04:22:23.042Z,15.10
2018-12-13T04:24:52.302Z,14.90
2018-12-13T04:27:21.591Z,15.20
2018-12-13T04:29:51.353Z,14.83
2018-12-13T04:32:22.729Z,15.30
2018-12-13T04:34:52.126Z,15.10
2018-12-13T04:37:21.414Z,16.20
2018-12-13T04:39:50.781Z,15.43
2018-12-13T04:42:20.129Z,16.37
2018-12-13T04:44:49.415Z,17.07
2018-12-13T04:47:18.696Z,17.13
2018-12-13T04:49:48.029Z,17.30
2018-12-13T04:52:17.290Z,17.37
2018-12-13T04:54:46.535Z,17.17
2018-12-13T04:57:15.806Z,17.47
2018-12-13T04:59:45.195Z,18.67
2018-12-13T05:02:14.561Z,18.27
2018-12-13T05:04:43.774Z,18.60
2018-12-13T05:07:13.058Z,19.03
2018-12-13T05:09:42.285Z,18.03
2018-12-13T05:12:11.555Z,18.13
2018-12-13T05:14:40.782Z,19.53
2018-12-13T05:17:10.032Z,18.80
2018-12-13T05:19:39.392Z,19.83
2018-12-13T05:22:08.761Z,19.63
2018-12-13T05:24:38.063Z,19.93
2018-12-13T05:27:07.279Z,21.17
2018-12-13T05:29:37.717Z,20.20
2018-12-13T05:32:07.007Z,19.93
2018-12-13T05:34:36.319Z,20.30
2018-12-13T05:37:05.652Z,21.60
2018-12-13T05:39:34.990Z,21.80
2018-12-13T05:42:04.289Z,20.60
2018-12-13T05:44:33.679Z,21.37
2018-12-13T05:47:02.956Z,21.23
2018-12-13T05:49:32.279Z,21.67
2018-12-13T05:52:01.594Z,22.23
2018-12-13T05:54:30.956Z,22.43
2018-12-13T05:57:00.385Z,21.80
2018-12-13T05:59:29.716Z,22.17
2018-12-13T06:01:59.046Z,22.47
2018-12-13T06:04:28.351Z,22.10
2018-12-13T06:06:57.643Z,21.73
2018-12-13T06:09:26.923Z,21.20
2018-12-13T06:11:56.368Z,21.83
2018-12-13T06:14:25.662Z,23.00
2018-12-13T06:16:55.052Z,22.27
2018-12-13T06:19:26.878Z,23.33
2018-12-13T06:21:55.960Z,20.90
2018-12-13T06:24:26.350Z,22.50
2018-12-13T06:26:55.677Z,21.30
2018-12-13T06:29:24.982Z,21.27
2018-12-13T06:31:54.331Z,21.10
2018-12-13T06:34:24.088Z,22.17
2018-12-13T06:36:53.382Z,22.73
2018-12-13T06:39:22.981Z,22.63
2018-12-13T06:41:52.288Z,22.10
2018-12-13T06:44:21.582Z,21.97
2018-12-13T06:46:50.852Z,22.53
2018-12-13T06:49:20.159Z,22.10
2018-12-13T06:51:49.586Z,21.33
2018-12-13T06:54:19.945Z,21.70
2018-12-13T06:56:49.381Z,21.87
2018-12-13T06:59:18.690Z,22.40
2018-12-13T07:01:48.040Z,20.67
2018-12-13T07:04:17.319Z,20.37
2018-12-13T07:06:48.786Z,22.07
2018-12-13T07:09:18.068Z,21.57
2018-12-13T07:11:47.328Z,21.83
2018-12-13T07:14:16.701Z,22.37
2018-12-13T07:16:46.054Z,21.63
2018-12-13T07:19:15.395Z,25.30
2018-12-13T07:21:44.667Z,23.80
2018-12-13T07:24:16.061Z,22.37
2018-12-13T07:26:45.444Z,22.67
2018-12-13T07:29:14.686Z,22.13
2018-12-13T07:31:45.189Z,22.13
2018-12-13T07:34:14.441Z,24.10
2018-12-13T07:36:43.739Z,22.87
2018-12-13T07:39:14.083Z,24.07
2018-12-13T07:41:43.378Z,24.00
2018-12-13T07:44:12.773Z,24.40
2018-12-13T07:46:42.043Z,24.43
2018-12-13T07:49:11.371Z,24.73
2018-12-13T07:51:40.658Z,22.93
2018-12-13T07:54:10.022Z,23.77
2018-12-13T07:56:39.339Z,22.83
2018-12-13T07:59:13.572Z,24.70
2018-12-13T08:01:43.275Z,22.40
2018-12-13T08:04:12.506Z,22.83
2018-12-13T08:06:41.763Z,21.93
2018-12-13T08:09:11.143Z,22.07
2018-12-13T08:11:40.429Z,21.97
2018-12-13T08:14:09.717Z,21.23
2018-12-13T08:16:39.067Z,21.23
2018-12-13T08:19:08.337Z,21.07
2018-12-13T08:21:38.783Z,19.40
2018-12-13T08:24:08.041Z,21.00
2018-12-13T08:26:37.304Z,20.00
2018-12-13T08:29:06.575Z,20.80
2018-12-13T08:31:35.858Z,20.17
2018-12-13T08:34:05.208Z,19.40
2018-12-13T08:36:36.563Z,22.07
2018-12-13T08:39:09.969Z,21.17
2018-12-13T08:41:39.412Z,22.23
2018-12-13T08:44:09.755Z,22.67
2018-12-13T08:46:39.070Z,21.63
2018-12-13T08:49:08.428Z,21.03
2018-12-13T08:51:37.711Z,21.57
2018-12-13T08:54:06.957Z,22.30
2018-12-13T08:56:36.211Z,21.07
2018-12-13T08:59:05.593Z,22.20
2018-12-13T09:01:34.816Z,21.27
2018-12-13T09:04:04.160Z,22.20
2018-12-13T09:06:33.509Z,22.07
2018-12-13T09:09:03.150Z,22.63
2018-12-13T09:11:33.489Z,22.97
2018-12-13T09:14:03.070Z,21.80
2018-12-13T09:16:32.306Z,20.77
2018-12-13T09:19:01.552Z,22.63
2018-12-13T09:21:30.786Z,22.03
2018-12-13T09:24:00.060Z,21.80
2018-12-13T09:26:29.400Z,21.03
2018-12-13T09:28:58.711Z,20.90
2018-12-13T09:31:27.997Z,20.27
2018-12-13T09:33:57.297Z,20.30
2018-12-13T09:36:26.567Z,19.50
2018-12-13T09:38:55.847Z,20.10
2018-12-13T09:41:25.245Z,20.07
2018-12-13T09:43:54.491Z,19.40
2018-12-13T09:46:23.690Z,18.40
2018-12-13T09:48:52.924Z,18.30
2018-12-13T09:51:22.168Z,16.87
2018-12-13T09:53:51.490Z,17.27
2018-12-13T09:56:20.823Z,15.00
2018-12-13T09:58:50.076Z,14.67
2018-12-13T10:01:19.343Z,14.90
2018-12-13T10:03:48.543Z,14.90
2018-12-13T10:06:17.791Z,13.87
2018-12-13T10:08:47.021Z,14.47
2018-12-13T10:11:16.398Z,13.47
2018-12-13T10:13:52.249Z,13.73
2018-12-13T10:16:21.583Z,13.37
2018-12-13T10:18:50.919Z,12.83
2018-12-13T10:21:20.214Z,13.53
2018-12-13T10:23:49.667Z,13.03
2018-12-13T10:26:18.898Z,12.33
2018-12-13T10:28:48.127Z,12.97
2018-12-13T10:31:17.364Z,11.17
2018-12-13T10:33:46.588Z,12.03
2018-12-13T10:36:15.829Z,11.77
2018-12-13T10:38:45.072Z,11.47
2018-12-13T10:41:14.467Z,10.77
2018-12-13T10:43:43.749Z,10.73
2018-12-13T10:46:13.024Z,11.03
2018-12-13T10:48:42.324Z,10.57
2018-12-13T10:51:11.712Z,10.17
2018-12-13T10:53:41.120Z,10.30
2018-12-13T10:56:10.351Z,10.63
2018-12-13T10:58:38.750Z,9.80
2018-12-13T11:01:13.140Z,10.17
2018-12-13T11:03:42.414Z,9.80
2018-12-13T11:06:11.656Z,9.50
2018-12-13T11:08:40.938Z,8.90
2018-12-13T11:11:10.278Z,8.93
2018-12-13T11:13:39.495Z,9.80
2018-12-13T11:16:08.731Z,9.60
2018-12-13T11:18:38.066Z,9.53
2018-12-13T11:21:07.381Z,9.43
2018-12-13T11:23:36.705Z,8.77
2018-12-13T11:26:05.958Z,9.23
2018-12-13T11:30:31.339Z,8.67
2018-12-13T11:33:00.574Z,9.27
2018-12-13T11:35:29.816Z,8.77
2018-12-13T11:37:59.137Z,9.30
2018-12-13T11:40:28.395Z,9.87
2018-12-13T11:42:57.716Z,9.83
2018-12-13T11:45:27.084Z,9.53
2018-12-13T11:47:56.337Z,10.47
2018-12-13T11:50:25.809Z,10.30
2018-12-13T11:52:55.027Z,9.80
2018-12-13T11:55:34.144Z,9.90
2018-12-13T11:58:05.873Z,10.07
2018-12-13T12:00:35.158Z,10.33
2018-12-13T12:03:04.398Z,11.47
2018-12-13T12:05:33.702Z,10.60
2018-12-13T12:08:03.077Z,9.93
2018-12-13T12:10:32.339Z,10.00
2018-12-13T12:13:01.719Z,11.93
2018-12-13T12:15:30.946Z,11.70
2018-12-13T12:18:00.466Z,10.37
2018-12-13T12:20:29.695Z,9.73
2018-12-13T12:22:58.987Z,11.00
2018-12-13T12:25:28.190Z,10.13
2018-12-13T12:27:59.558Z,10.10
2018-12-13T12:30:29.016Z,9.77
2018-12-13T12:32:58.242Z,10.83
2018-12-13T12:35:27.450Z,9.60
2018-12-13T12:37:56.750Z,10.27
2018-12-13T12:40:25.983Z,10.63
2018-12-13T12:42:55.253Z,10.47
2018-12-13T12:45:24.596Z,9.80
2018-12-13T12:47:53.840Z,9.60
2018-12-13T12:50:25.222Z,9.23
2018-12-13T12:52:54.529Z,12.77
2018-12-13T12:55:24.831Z,9.37
2018-12-13T12:57:54.119Z,9.53
2018-12-13T13:00:23.424Z,9.80
2018-12-13T13:02:52.856Z,10.00
2018-12-13T13:05:23.237Z,10.00
2018-12-13T13:07:52.478Z,8.97
2018-12-13T13:10:21.756Z,9.33
2018-12-13T13:12:52.275Z,8.93
2018-12-13T13:15:21.591Z,10.87
2018-12-13T13:17:50.966Z,9.90
2018-12-13T13:20:20.215Z,8.83
2018-12-13T13:22:49.461Z,8.93
2018-12-13T13:25:18.737Z,9.00
2018-12-13T13:27:48.010Z,8.87
2018-12-13T13:30:17.338Z,8.30
2018-12-13T13:32:46.753Z,9.07
2018-12-13T13:35:16.257Z,7.93
2018-12-13T13:37:45.519Z,8.33
2018-12-13T13:40:14.750Z,9.20
2018-12-13T13:42:50.609Z,9.10
2018-12-13T13:45:20.076Z,8.77
2018-12-13T13:47:49.289Z,9.57
2018-12-13T13:50:18.569Z,9.60
2018-12-13T13:52:47.883Z,9.17
2018-12-13T13:55:19.303Z,8.80
2018-12-13T13:57:49.639Z,9.50
2018-12-13T14:00:18.850Z,9.87
2018-12-13T14:02:48.267Z,9.20
2018-12-13T14:05:17.705Z,9.37
2018-12-13T14:07:47.083Z,9.60
2018-12-13T14:10:16.418Z,8.53
2018-12-13T14:12:45.720Z,8.90
2018-12-13T14:15:15.012Z,8.33
2018-12-13T14:17:45.334Z,7.97
2018-12-13T14:20:14.740Z,8.23
2018-12-13T14:22:46.382Z,7.80
2018-12-13T14:25:15.710Z,7.63
2018-12-13T14:27:45.028Z,8.40
2018-12-13T14:30:14.493Z,7.37
2018-12-13T14:32:43.755Z,7.53
2018-12-13T14:35:19.079Z,7.40
2018-12-13T14:37:50.583Z,7.63
2018-12-13T14:40:19.926Z,7.50
2018-12-13T14:42:50.292Z,7.83
2018-12-13T14:45:19.590Z,7.27
2018-12-13T14:47:49.962Z,7.70
2018-12-13T14:50:19.418Z,7.40
2018-12-13T14:52:49.660Z,7.30
2018-12-13T14:55:19.144Z,6.97
2018-12-13T14:57:48.491Z,6.77
2018-12-13T15:00:17.889Z,6.93
2018-12-13T15:02:47.275Z,6.63
2018-12-13T15:05:16.926Z,6.80
2018-12-13T15:07:48.190Z,6.23
2018-12-13T15:10:17.495Z,6.30
2018-12-13T15:12:46.820Z,6.03
2018-12-13T15:15:18.233Z,6.13
2018-12-13T15:17:47.522Z,6.50
2018-12-13T15:20:16.751Z,5.90
2018-12-13T15:22:46.080Z,5.83
2018-12-13T15:25:15.478Z,10.13
2018-12-13T15:27:44.744Z,13.27
2018-12-13T15:30:15.235Z,8.60
2018-12-13T15:32:44.623Z,6.63
2018-12-13T15:35:13.882Z,6.50
2018-12-13T15:37:45.531Z,6.83
2018-12-13T15:40:17.979Z,6.90
2018-12-13T15:42:49.364Z,6.27
2018-12-13T15:45:19.749Z,7.10
2018-12-13T15:47:49.014Z,6.00
2018-12-13T15:50:18.289Z,6.13
2018-12-13T15:52:49.620Z,5.90
2018-12-13T15:55:20.892Z,5.67
2018-12-13T15:57:50.257Z,5.87
2018-12-13T16:00:19.568Z,5.93
2018-12-13T16:02:49.969Z,5.70
2018-12-13T16:05:19.567Z,5.43
2018-12-13T16:07:48.939Z,5.40
2018-12-13T16:10:18.227Z,5.50
2018-12-13T16:12:47.628Z,5.80
2018-12-13T16:15:16.914Z,5.50
2018-12-13T16:17:46.183Z,4.87
2018-12-13T16:20:15.607Z,5.13
2018-12-13T16:22:45.588Z,4.97
2018-12-13T16:25:14.825Z,4.90
2018-12-13T16:27:44.132Z,4.57
2018-12-13T16:30:13.919Z,5.00
2018-12-13T16:32:44.210Z,4.77
2018-12-13T16:35:13.506Z,5.07
2018-12-13T16:37:46.907Z,4.97
2018-12-13T16:40:16.186Z,4.97
2018-12-13T16:42:45.508Z,5.00
2018-12-13T16:45:14.785Z,5.13
2018-12-13T16:47:46.111Z,5.37
2018-12-13T16:50:15.418Z,5.37
2018-12-13T16:52:44.812Z,4.90
2018-12-13T16:55:14.190Z,5.90
2018-12-13T16:57:45.566Z,5.77
2018-12-13T17:00:16.076Z,4.83
2018-12-13T17:02:46.468Z,4.77
2018-12-13T17:05:15.713Z,4.60
2018-12-13T17:07:45.075Z,5.20
2018-12-13T17:10:16.949Z,5.13
2018-12-13T17:12:46.409Z,4.83
2018-12-13T17:15:15.828Z,5.43
2018-12-13T17:17:45.214Z,5.27
2018-12-13T17:20:14.713Z,4.93
2018-12-13T17:22:45.992Z,4.73
2018-12-13T17:25:15.403Z,5.10
2018-12-13T17:27:44.877Z,5.13
2018-12-13T17:30:14.211Z,6.17
2018-12-13T17:32:43.647Z,5.03
2018-12-13T17:35:18.827Z,5.30
2018-12-13T17:37:48.285Z,4.87
2018-12-13T17:40:22.981Z,4.40
2018-12-13T17:42:49.547Z,4.80
2018-12-13T17:45:19.049Z,4.93
2018-12-13T17:47:49.540Z,4.53
2018-12-13T17:50:19.027Z,4.97
2018-12-13T17:52:48.396Z,5.07
2018-12-13T17:55:17.867Z,4.97
2018-12-13T17:57:47.283Z,4.73
2018-12-13T18:00:16.748Z,4.77
2018-12-13T18:02:46.055Z,4.80
2018-12-13T18:05:15.490Z,4.97
2018-12-13T18:07:45.882Z,4.90
2018-12-13T18:10:15.855Z,5.50
2018-12-13T18:12:45.203Z,5.47
2018-12-13T18:15:14.654Z,6.00
2018-12-13T18:17:45.065Z,5.83
2018-12-13T18:20:14.339Z,5.50
2018-12-13T18:22:43.730Z,10.27
2018-12-13T18:25:21.643Z,6.00
2018-12-13T18:27:51.005Z,6.97
2018-12-13T18:30:20.391Z,6.17
2018-12-13T18:32:49.596Z,7.10
2018-12-13T18:35:18.989Z,7.17
2018-12-13T18:37:48.332Z,6.93
2018-12-13T18:40:17.666Z,7.73
2018-12-13T18:42:48.110Z,8.00
2018-12-13T18:45:19.399Z,8.23
2018-12-13T18:47:48.870Z,7.83
2018-12-13T18:50:18.226Z,8.23
2018-12-13T18:52:48.708Z,7.80
2018-12-13T18:55:18.005Z,8.53
2018-12-13T18:57:48.429Z,8.77
2018-12-13T19:00:17.710Z,8.23
2018-12-13T19:02:46.925Z,9.90
2018-12-13T19:05:16.189Z,8.80
2018-12-13T19:07:45.490Z,9.53
2018-12-13T19:10:18.121Z,9.67
2018-12-13T19:12:52.918Z,17.77
2018-12-13T19:15:34.811Z,10.47
2018-12-13T19:18:26.299Z,10.93
2018-12-13T19:21:01.844Z,9.97
2018-12-13T19:23:34.905Z,10.47
2018-12-13T19:26:11.177Z,11.47
2018-12-13T19:28:44.268Z,11.13
2018-12-13T19:31:19.714Z,11.13
2018-12-13T19:33:54.707Z,11.40
2018-12-13T19:36:29.642Z,11.33
2018-12-13T19:39:07.999Z,11.67
2018-12-13T19:41:42.699Z,11.73
2018-12-13T19:44:27.913Z,11.87
2018-12-13T19:47:21.966Z,11.20
2018-12-13T19:49:56.823Z,11.73
2018-12-13T19:52:29.230Z,11.73
2018-12-13T19:55:10.695Z,11.00
2018-12-13T19:57:45.427Z,11.70
2018-12-13T20:00:18.544Z,12.00
2018-12-13T20:02:51.835Z,11.80
2018-12-13T20:05:22.270Z,13.10
2018-12-13T20:07:55.577Z,11.60
2018-12-13T20:10:47.693Z,12.70
2018-12-13T20:13:20.882Z,12.03
2018-12-13T20:16:06.024Z,11.57
2018-12-13T20:18:39.683Z,11.80
2018-12-13T20:21:15.242Z,11.90
2018-12-13T20:23:50.564Z,10.73
2018-12-13T20:26:26.132Z,10.83
2018-12-13T20:32:01.958Z,11.00
2018-12-13T20:34:37.397Z,11.27
2018-12-13T20:37:13.112Z,12.40
2018-12-13T20:39:49.197Z,12.03
2018-12-13T20:42:34.599Z,10.97
2018-12-13T20:45:09.909Z,10.67
2018-12-13T20:47:42.571Z,10.70
2018-12-13T20:50:17.425Z,10.60
2018-12-13T20:52:50.560Z,10.90
2018-12-13T20:55:25.421Z,10.60
2018-12-13T20:58:00.777Z,10.80
2018-12-13T21:00:34.487Z,11.27
2018-12-13T21:03:07.059Z,10.97
2018-12-13T21:05:39.599Z,13.07
2018-12-13T21:08:14.360Z,11.73
2018-12-13T21:10:46.758Z,11.67
2018-12-13T21:13:27.023Z,12.20
2018-12-13T21:16:15.215Z,11.67
2018-12-13T21:18:51.423Z,11.50
2018-12-13T21:21:36.655Z,12.07
2018-12-13T21:24:11.373Z,12.40
2018-12-13T21:26:43.098Z,13.07
2018-12-13T21:29:14.359Z,12.53
2018-12-13T21:31:46.864Z,12.27
2018-12-13T21:34:21.715Z,12.43
2018-12-13T21:36:54.615Z,12.20
2018-12-13T21:39:27.771Z,12.40
2018-12-13T21:42:04.815Z,12.67
2018-12-13T21:44:40.108Z,12.70
2018-12-13T21:47:15.232Z,13.73
2018-12-13T21:49:50.527Z,13.00
2018-12-13T21:52:24.585Z,13.50
2018-12-13T21:54:57.298Z,13.67
2018-12-13T21:57:32.938Z,13.40
2018-12-13T22:00:09.642Z,14.03
2018-12-13T22:02:42.741Z,13.17
2018-12-13T22:05:18.056Z,14.13
2018-12-13T22:07:53.589Z,14.17
2018-12-13T22:10:28.957Z,13.60
2018-12-13T22:13:02.037Z,14.40
2018-12-13T22:15:34.555Z,14.60
2018-12-13T22:18:07.138Z,14.43
2018-12-13T22:20:43.679Z,13.60
2018-12-13T22:23:16.611Z,13.47
2018-12-13T22:25:56.202Z,14.70
2018-12-13T22:28:29.437Z,15.60
2018-12-13T22:31:02.283Z,14.50
2018-12-13T22:33:35.716Z,14.40
2018-12-13T22:36:08.364Z,15.17
2018-12-13T22:38:41.145Z,14.97
2018-12-13T22:41:13.590Z,15.57
2018-12-13T22:43:48.823Z,15.37
2018-12-13T22:46:24.428Z,15.33
2018-12-13T22:55:02.971Z,14.90
2018-12-13T22:57:38.283Z,15.03
2018-12-13T23:00:13.544Z,15.00
2018-12-13T23:02:44.648Z,16.53
2018-12-13T23:05:19.715Z,15.17
2018-12-13T23:07:58.011Z,16.57
2018-12-13T23:10:33.909Z,16.80
2018-12-13T23:13:18.759Z,16.27
2018-12-13T23:15:53.573Z,16.27
2018-12-13T23:21:33.946Z,16.27
2018-12-13T23:24:04.998Z,15.97
2018-12-13T23:26:40.251Z,16.13
2018-12-13T23:32:16.663Z,16.83
2018-12-13T23:35:00.651Z,16.67
2018-12-13T23:37:35.793Z,14.80
2018-12-13T23:40:08.487Z,15.20
2018-12-13T23:42:39.608Z,16.43
2018-12-13T23:45:12.905Z,15.37
2018-12-13T23:47:48.109Z,16.40
2018-12-13T23:50:31.309Z,16.63
2018-12-13T23:53:06.567Z,15.87
2018-12-13T23:55:41.847Z,16.27
2018-12-13T23:58:36.270Z,16.37
